createdAt,value
2017-09-02T00:00:47.443Z,87.70
2017-09-02T00:03:15.583Z,87.10
2017-09-02T00:05:43.737Z,87.10
2017-09-02T00:08:11.874Z,87.20
2017-09-02T00:10:40.142Z,87.50
2017-09-02T00:13:08.265Z,87.60
2017-09-02T00:15:36.395Z,87.30
2017-09-02T00:18:04.657Z,87.50
2017-09-02T00:20:32.806Z,87.60
2017-09-02T00:23:00.942Z,87.90
2017-09-02T00:25:29.200Z,87.80
2017-09-02T00:27:57.343Z,88.00
2017-09-02T00:30:25.491Z,87.90
2017-09-02T00:32:53.670Z,88.00
2017-09-02T00:35:21.806Z,88.00
2017-09-02T00:37:49.928Z,87.90
2017-09-02T00:40:18.095Z,88.00
2017-09-02T00:42:46.251Z,88.00
2017-09-02T00:45:14.405Z,88.10
2017-09-02T00:47:42.525Z,88.10
2017-09-02T00:50:10.667Z,86.90
2017-09-02T00:52:38.829Z,87.60
2017-09-02T00:55:06.961Z,87.50
2017-09-02T00:57:35.130Z,87.80
2017-09-02T01:00:03.277Z,87.40
2017-09-02T01:02:31.444Z,87.80
2017-09-02T01:04:59.570Z,88.00
2017-09-02T01:07:27.735Z,88.30
2017-09-02T01:09:55.895Z,88.20
2017-09-02T01:12:24.030Z,88.90
2017-09-02T01:14:52.176Z,88.50
2017-09-02T01:17:20.337Z,88.50
2017-09-02T01:19:48.468Z,88.60
2017-09-02T01:22:16.626Z,88.50
2017-09-02T01:24:44.761Z,88.50
2017-09-02T01:27:12.943Z,88.00
2017-09-02T01:29:41.089Z,88.10
2017-09-02T01:32:09.234Z,88.20
2017-09-02T01:34:37.406Z,88.00
2017-09-02T01:37:05.551Z,88.10
2017-09-02T01:39:33.698Z,88.30
2017-09-02T01:42:01.863Z,88.10
2017-09-02T01:44:29.998Z,87.30
2017-09-02T01:46:58.129Z,87.40
2017-09-02T01:49:26.281Z,87.00
2017-09-02T01:51:54.422Z,87.50
2017-09-02T01:54:22.555Z,88.00
2017-09-02T01:56:50.717Z,87.70
2017-09-02T01:59:18.855Z,88.00
2017-09-02T02:01:46.990Z,87.10
2017-09-02T02:04:15.150Z,87.00
2017-09-02T02:06:43.281Z,87.70
2017-09-02T02:09:11.429Z,87.70
2017-09-02T02:11:39.568Z,87.20
2017-09-02T02:14:07.725Z,87.40
2017-09-02T02:16:35.859Z,87.60
2017-09-02T02:19:04.011Z,87.70
2017-09-02T02:21:32.141Z,88.00
2017-09-02T02:24:00.300Z,88.30
2017-09-02T02:26:28.441Z,88.10
2017-09-02T02:28:56.591Z,88.10
2017-09-02T02:31:24.762Z,88.70
2017-09-02T02:33:52.894Z,88.70
2017-09-02T02:36:21.065Z,88.50
2017-09-02T02:38:49.197Z,88.50
2017-09-02T02:41:17.367Z,88.50
2017-09-02T02:43:45.504Z,87.30
2017-09-02T02:46:13.641Z,87.50
2017-09-02T02:48:41.811Z,88.10
2017-09-02T02:51:09.947Z,86.80
2017-09-02T02:53:38.097Z,86.50
2017-09-02T02:56:06.230Z,87.20
2017-09-02T02:58:34.378Z,87.90
2017-09-02T03:01:02.528Z,88.50
2017-09-02T03:03:30.673Z,88.70
2017-09-02T03:05:58.835Z,88.90
2017-09-02T03:08:26.965Z,88.90
2017-09-02T03:10:55.133Z,88.90
2017-09-02T03:13:23.271Z,88.70
2017-09-02T03:15:51.451Z,89.10
2017-09-02T03:18:19.594Z,88.70
2017-09-02T03:20:47.731Z,87.90
2017-09-02T03:23:16.010Z,87.00
2017-09-02T03:25:44.141Z,85.80
2017-09-02T03:28:12.289Z,86.10
2017-09-02T03:30:40.442Z,86.60
2017-09-02T03:33:08.580Z,87.00
2017-09-02T03:35:36.749Z,86.80
2017-09-02T03:38:04.877Z,87.30
2017-09-02T03:40:33.046Z,87.20
2017-09-02T03:43:01.195Z,86.30
2017-09-02T03:45:29.321Z,87.10
2017-09-02T03:47:57.475Z,87.10
2017-09-02T03:50:25.601Z,87.90
2017-09-02T03:52:53.745Z,88.10
2017-09-02T03:55:21.915Z,87.50
2017-09-02T03:57:50.055Z,87.80
2017-09-02T04:00:18.271Z,88.40
2017-09-02T04:02:46.407Z,88.50
2017-09-02T04:05:14.574Z,88.00
2017-09-02T04:07:42.711Z,87.10
2017-09-02T04:10:10.841Z,87.30
2017-09-02T04:12:39.010Z,88.10
2017-09-02T04:15:07.169Z,87.30
2017-09-02T04:17:35.335Z,87.80
2017-09-02T04:20:03.475Z,87.60
2017-09-02T04:22:31.639Z,88.10
2017-09-02T04:24:59.775Z,88.50
2017-09-02T04:27:27.902Z,87.90
2017-09-02T04:29:56.053Z,88.10
2017-09-02T04:32:24.204Z,88.40
2017-09-02T04:34:52.371Z,88.40
2017-09-02T04:37:20.505Z,88.50
2017-09-02T04:39:48.637Z,87.10
2017-09-02T04:42:16.785Z,87.10
2017-09-02T04:44:44.922Z,87.10
2017-09-02T04:47:13.053Z,87.10
2017-09-02T04:49:41.205Z,87.90
2017-09-02T04:52:09.348Z,87.50
2017-09-02T04:54:37.473Z,87.80
2017-09-02T04:57:05.627Z,87.60
2017-09-02T04:59:33.752Z,88.20
2017-09-02T05:02:01.886Z,88.20
2017-09-02T05:04:30.040Z,87.20
2017-09-02T05:06:58.179Z,87.80
2017-09-02T05:09:26.338Z,87.80
2017-09-02T05:11:54.460Z,88.30
2017-09-02T05:14:22.612Z,89.00
2017-09-02T05:16:50.764Z,88.50
2017-09-02T05:19:18.911Z,88.40
2017-09-02T05:21:47.134Z,88.50
2017-09-02T05:24:15.281Z,88.70
2017-09-02T05:26:43.446Z,89.20
2017-09-02T05:29:11.581Z,89.20
2017-09-02T05:31:39.767Z,89.20
2017-09-02T05:34:07.915Z,89.20
2017-09-02T05:36:36.059Z,89.30
2017-09-02T05:39:04.212Z,89.00
2017-09-02T05:41:32.344Z,89.10
2017-09-02T05:44:00.605Z,88.00
2017-09-02T05:46:28.797Z,88.30
2017-09-02T05:48:56.934Z,88.30
2017-09-02T05:51:25.096Z,87.80
2017-09-02T05:53:53.250Z,88.00
2017-09-02T05:56:21.404Z,88.00
2017-09-02T05:58:49.539Z,88.40
2017-09-02T06:01:17.710Z,88.60
2017-09-02T06:03:45.845Z,88.60
2017-09-02T06:06:13.999Z,87.80
2017-09-02T06:08:42.135Z,88.00
2017-09-02T06:11:10.274Z,87.90
2017-09-02T06:13:38.425Z,88.10
2017-09-02T06:16:06.561Z,87.00
2017-09-02T06:18:34.712Z,87.50
2017-09-02T06:21:02.839Z,87.90
2017-09-02T06:23:30.971Z,87.90
2017-09-02T06:25:59.132Z,88.50
2017-09-02T06:28:27.256Z,88.00
2017-09-02T06:30:55.417Z,88.00
2017-09-02T06:33:23.560Z,88.00
2017-09-02T06:35:51.727Z,87.70
2017-09-02T06:38:19.867Z,87.50
2017-09-02T06:40:47.993Z,87.80
2017-09-02T06:43:16.258Z,88.40
2017-09-02T06:45:44.394Z,88.60
2017-09-02T06:48:12.533Z,86.90
2017-09-02T06:50:40.706Z,87.90
2017-09-02T06:53:08.845Z,87.30
2017-09-02T06:55:37.031Z,87.70
2017-09-02T06:58:06.040Z,88.20
2017-09-02T07:00:34.193Z,88.40
2017-09-02T07:03:02.335Z,88.50
2017-09-02T07:05:30.486Z,88.50
2017-09-02T07:07:58.613Z,88.20
2017-09-02T07:10:26.742Z,88.40
2017-09-02T07:12:54.911Z,88.70
2017-09-02T07:15:23.059Z,88.80
2017-09-02T07:17:51.277Z,88.70
2017-09-02T07:20:19.433Z,87.50
2017-09-02T07:22:47.577Z,87.50
2017-09-02T07:25:15.725Z,87.60
2017-09-02T07:27:43.885Z,86.80
2017-09-02T07:30:12.024Z,86.50
2017-09-02T07:32:40.157Z,87.20
2017-09-02T07:35:08.317Z,87.40
2017-09-02T07:37:36.445Z,87.30
2017-09-02T07:40:04.593Z,87.20
2017-09-02T07:42:32.767Z,86.30
2017-09-02T07:45:00.901Z,87.30
2017-09-02T07:47:29.122Z,87.00
2017-09-02T07:49:57.267Z,87.20
2017-09-02T07:52:25.412Z,87.40
2017-09-02T07:54:53.577Z,87.60
2017-09-02T07:57:21.709Z,86.60
2017-09-02T07:59:49.882Z,87.90
2017-09-02T08:02:18.021Z,87.80
2017-09-02T08:04:46.286Z,88.10
2017-09-02T08:07:14.418Z,88.30
2017-09-02T08:09:42.559Z,87.30
2017-09-02T08:12:10.722Z,87.30
2017-09-02T08:14:38.861Z,87.30
2017-09-02T08:17:07.003Z,88.00
2017-09-02T08:19:35.153Z,87.00
2017-09-02T08:22:03.286Z,86.20
2017-09-02T08:24:31.451Z,86.40
2017-09-02T08:26:59.590Z,85.80
2017-09-02T08:29:27.743Z,85.90
2017-09-02T08:31:55.884Z,85.60
2017-09-02T08:34:24.147Z,85.70
2017-09-02T08:36:52.287Z,85.50
2017-09-02T08:39:20.413Z,85.90
2017-09-02T08:41:48.568Z,86.00
2017-09-02T08:44:16.706Z,86.70
2017-09-02T08:46:44.843Z,87.20
2017-09-02T08:49:13.001Z,86.40
2017-09-02T08:51:41.145Z,86.80
2017-09-02T08:54:09.282Z,86.80
2017-09-02T08:56:37.432Z,86.20
2017-09-02T08:59:05.568Z,85.30
2017-09-02T09:01:33.718Z,85.10
2017-09-02T09:04:01.851Z,84.80
2017-09-02T09:06:30.019Z,84.40
2017-09-02T09:08:58.155Z,84.90
2017-09-02T09:11:26.289Z,85.60
2017-09-02T09:13:54.465Z,84.70
2017-09-02T09:16:22.595Z,83.00
2017-09-02T09:18:50.759Z,83.60
2017-09-02T09:21:18.882Z,84.80
2017-09-02T09:23:47.124Z,84.30
2017-09-02T09:26:15.259Z,82.90
2017-09-02T09:28:43.394Z,84.00
2017-09-02T09:31:11.540Z,84.40
2017-09-02T09:33:39.696Z,84.80
2017-09-02T09:36:07.854Z,84.50
2017-09-02T09:38:35.992Z,84.20
2017-09-02T09:41:04.123Z,84.90
2017-09-02T09:43:32.269Z,84.20
2017-09-02T09:46:00.389Z,82.90
2017-09-02T09:48:28.581Z,83.20
2017-09-02T09:50:56.719Z,84.50
2017-09-02T09:53:24.867Z,83.80
2017-09-02T09:55:52.999Z,84.30
2017-09-02T09:58:21.133Z,85.00
2017-09-02T10:00:49.278Z,83.60
2017-09-02T10:03:17.407Z,84.70
2017-09-02T10:05:45.545Z,82.50
2017-09-02T10:08:13.709Z,80.30
2017-09-02T10:10:41.842Z,81.90
2017-09-02T10:13:09.977Z,78.60
2017-09-02T10:15:38.127Z,78.20
2017-09-02T10:18:06.248Z,76.90
2017-09-02T10:20:34.381Z,77.60
2017-09-02T10:23:02.522Z,76.70
2017-09-02T10:25:30.644Z,76.40
2017-09-02T10:27:58.785Z,76.70
2017-09-02T10:30:26.905Z,76.40
2017-09-02T10:32:55.052Z,77.90
2017-09-02T10:35:23.174Z,77.00
2017-09-02T10:37:51.320Z,78.40
2017-09-02T10:40:19.446Z,77.40
2017-09-02T10:42:47.581Z,76.60
2017-09-02T10:45:15.729Z,77.00
2017-09-02T10:47:43.871Z,78.60
2017-09-02T10:50:12.022Z,79.70
2017-09-02T10:52:40.158Z,80.50
2017-09-02T10:55:08.304Z,80.50
2017-09-02T10:57:36.436Z,79.90
2017-09-02T11:00:04.568Z,76.00
2017-09-02T11:02:32.723Z,77.50
2017-09-02T11:05:00.854Z,78.30
2017-09-02T11:07:29.031Z,79.30
2017-09-02T11:09:57.149Z,77.40
2017-09-02T11:12:25.305Z,80.10
2017-09-02T11:14:53.443Z,79.20
2017-09-02T11:17:21.572Z,76.60
2017-09-02T11:19:49.716Z,78.30
2017-09-02T11:22:17.883Z,76.10
2017-09-02T11:24:46.029Z,75.30
2017-09-02T11:27:14.178Z,78.10
2017-09-02T11:29:42.351Z,75.20
2017-09-02T11:32:10.487Z,72.90
2017-09-02T11:34:38.619Z,74.90
2017-09-02T11:37:06.769Z,72.40
2017-09-02T11:39:34.904Z,74.80
2017-09-02T11:42:03.049Z,74.90
2017-09-02T11:44:31.170Z,74.70
2017-09-02T11:46:59.327Z,75.20
2017-09-02T11:49:27.448Z,74.00
2017-09-02T11:51:55.597Z,74.10
2017-09-02T11:54:23.730Z,75.10
2017-09-02T11:56:51.863Z,73.80
2017-09-02T11:59:20.019Z,75.50
2017-09-02T12:01:48.143Z,74.50
2017-09-02T12:04:16.284Z,74.80
2017-09-02T12:06:44.410Z,75.20
2017-09-02T12:09:12.561Z,74.40
2017-09-02T12:11:40.708Z,74.90
2017-09-02T12:14:08.834Z,75.50
2017-09-02T12:16:36.997Z,76.80
2017-09-02T12:19:05.131Z,76.60
2017-09-02T12:21:33.277Z,73.20
2017-09-02T12:24:01.417Z,72.90
2017-09-02T12:26:29.590Z,71.70
2017-09-02T12:28:57.713Z,74.80
2017-09-02T12:31:25.856Z,70.60
2017-09-02T12:33:54.004Z,71.20
2017-09-02T12:36:22.143Z,69.70
2017-09-02T12:38:50.304Z,70.90
2017-09-02T12:41:18.433Z,72.90
2017-09-02T12:43:46.563Z,69.40
2017-09-02T12:46:14.705Z,70.70
2017-09-02T12:48:42.845Z,70.30
2017-09-02T12:51:10.997Z,71.50
2017-09-02T12:53:39.135Z,72.90
2017-09-02T12:56:07.395Z,72.60
2017-09-02T12:58:35.519Z,68.90
2017-09-02T13:01:03.652Z,70.30
2017-09-02T13:03:31.819Z,70.00
2017-09-02T13:05:59.945Z,70.80
2017-09-02T13:08:28.195Z,72.60
2017-09-02T13:10:56.327Z,73.30
2017-09-02T13:13:24.458Z,70.60
2017-09-02T13:15:52.615Z,72.90
2017-09-02T13:18:20.737Z,75.60
2017-09-02T13:20:48.889Z,73.40
2017-09-02T13:23:17.005Z,73.60
2017-09-02T13:25:45.139Z,73.00
2017-09-02T13:28:13.293Z,74.00
2017-09-02T13:30:41.423Z,75.00
2017-09-02T13:33:09.560Z,76.40
2017-09-02T13:35:37.701Z,74.70
2017-09-02T13:38:05.835Z,78.10
2017-09-02T13:40:33.983Z,74.90
2017-09-02T13:43:02.116Z,75.10
2017-09-02T13:45:30.263Z,74.90
2017-09-02T13:47:58.408Z,75.80
2017-09-02T13:50:26.535Z,77.90
2017-09-02T13:52:54.688Z,74.80
2017-09-02T13:55:22.817Z,76.00
2017-09-02T13:57:50.940Z,76.80
2017-09-02T14:00:19.111Z,74.80
2017-09-02T14:02:47.233Z,74.90
2017-09-02T14:05:15.350Z,76.20
2017-09-02T14:07:43.540Z,76.70
2017-09-02T14:10:11.685Z,77.40
2017-09-02T14:12:39.949Z,77.30
2017-09-02T14:15:08.098Z,76.00
2017-09-02T14:17:36.226Z,75.20
2017-09-02T14:20:04.399Z,74.00
2017-09-02T14:22:32.541Z,74.60
2017-09-02T14:25:00.681Z,72.60
2017-09-02T14:27:28.822Z,72.20
2017-09-02T14:29:56.943Z,73.70
2017-09-02T14:32:25.090Z,74.30
2017-09-02T14:34:53.243Z,73.60
2017-09-02T14:37:21.389Z,74.20
2017-09-02T14:39:49.513Z,74.20
2017-09-02T14:42:17.642Z,72.50
2017-09-02T14:44:45.785Z,72.40
2017-09-02T14:47:13.905Z,72.60
2017-09-02T14:49:42.132Z,72.00
2017-09-02T14:52:10.277Z,72.30
2017-09-02T14:54:38.403Z,71.00
2017-09-02T14:57:07.608Z,73.10
2017-09-02T14:59:35.752Z,71.90
2017-09-02T15:02:03.910Z,70.80
2017-09-02T15:04:32.046Z,69.30
2017-09-02T15:07:00.215Z,70.60
2017-09-02T15:09:28.342Z,70.70
2017-09-02T15:11:56.461Z,72.50
2017-09-02T15:14:24.620Z,73.70
2017-09-02T15:16:52.738Z,72.90
2017-09-02T15:19:20.873Z,73.50
2017-09-02T15:21:49.031Z,73.20
2017-09-02T15:24:17.162Z,73.70
2017-09-02T15:26:45.298Z,73.70
2017-09-02T15:29:13.455Z,75.00
2017-09-02T15:31:41.591Z,75.80
2017-09-02T15:34:09.758Z,73.70
2017-09-02T15:36:37.880Z,73.80
2017-09-02T15:39:06.025Z,74.80
2017-09-02T15:41:34.164Z,76.40
2017-09-02T15:44:02.308Z,76.60
2017-09-02T15:46:30.437Z,75.10
2017-09-02T15:48:58.571Z,75.40
2017-09-02T15:51:26.816Z,73.40
2017-09-02T15:53:54.949Z,72.70
2017-09-02T15:56:23.075Z,72.10
2017-09-02T15:58:51.259Z,73.90
2017-09-02T16:01:19.404Z,74.20
2017-09-02T16:03:47.559Z,75.60
2017-09-02T16:06:15.681Z,76.70
2017-09-02T16:08:43.807Z,77.00
2017-09-02T16:11:12.086Z,77.50
2017-09-02T16:13:40.217Z,77.90
2017-09-02T16:16:08.363Z,77.80
2017-09-02T16:18:36.514Z,76.90
2017-09-02T16:21:04.641Z,77.40
2017-09-02T16:23:32.778Z,78.20
2017-09-02T16:26:00.940Z,78.50
2017-09-02T16:28:29.072Z,77.20
2017-09-02T16:30:57.205Z,77.20
2017-09-02T16:33:25.362Z,78.30
2017-09-02T16:35:53.502Z,78.30
2017-09-02T16:38:21.658Z,78.60
2017-09-02T16:40:49.790Z,78.40
2017-09-02T16:43:17.938Z,76.70
2017-09-02T16:45:46.053Z,77.30
2017-09-02T16:48:14.183Z,78.00
2017-09-02T16:50:42.348Z,78.50
2017-09-02T16:53:10.487Z,78.50
2017-09-02T16:55:38.649Z,77.80
2017-09-02T16:58:06.765Z,78.90
2017-09-02T17:00:34.898Z,79.10
2017-09-02T17:03:03.042Z,79.20
2017-09-02T17:05:31.174Z,77.10
2017-09-02T17:07:59.305Z,77.90
2017-09-02T17:10:27.456Z,79.10
2017-09-02T17:12:56.119Z,79.10
2017-09-02T17:15:24.241Z,80.20
2017-09-02T17:17:52.426Z,80.30
2017-09-02T17:20:20.564Z,80.40
2017-09-02T17:22:48.738Z,81.20
2017-09-02T17:25:16.879Z,81.50
2017-09-02T17:27:45.046Z,82.00
2017-09-02T17:30:13.174Z,82.50
2017-09-02T17:32:41.312Z,82.90
2017-09-02T17:35:09.491Z,83.10
2017-09-02T17:37:37.621Z,82.80
2017-09-02T17:40:05.758Z,83.30
2017-09-02T17:42:33.907Z,83.10
2017-09-02T17:45:02.035Z,83.80
2017-09-02T17:47:30.310Z,84.00
2017-09-02T17:49:58.444Z,84.20
2017-09-02T17:52:26.571Z,84.30
2017-09-02T17:54:54.734Z,84.50
2017-09-02T17:57:22.863Z,84.30
2017-09-02T17:59:51.005Z,84.10
2017-09-02T18:02:19.131Z,84.00
2017-09-02T18:04:47.298Z,84.00
2017-09-02T18:07:15.417Z,84.10
2017-09-02T18:09:43.543Z,84.30
2017-09-02T18:12:11.753Z,84.30
2017-09-02T18:14:39.891Z,84.40
2017-09-02T18:17:08.012Z,84.50
2017-09-02T18:19:36.162Z,84.50
2017-09-02T18:22:04.285Z,84.70
2017-09-02T18:24:32.412Z,84.90
2017-09-02T18:27:00.572Z,84.90
2017-09-02T18:29:28.706Z,85.10
2017-09-02T18:31:56.835Z,85.40
2017-09-02T18:34:24.995Z,85.50
2017-09-02T18:36:53.123Z,85.50
2017-09-02T18:39:21.283Z,85.50
2017-09-02T18:41:49.419Z,85.50
2017-09-02T18:44:17.565Z,85.50
2017-09-02T18:46:45.695Z,85.50
2017-09-02T18:49:13.835Z,85.70
2017-09-02T18:51:42.054Z,85.70
2017-09-02T18:54:10.203Z,85.60
2017-09-02T18:56:38.384Z,85.50
2017-09-02T18:59:06.562Z,85.40
2017-09-02T19:01:34.739Z,85.30
2017-09-02T19:04:02.941Z,85.40
2017-09-02T19:06:31.109Z,85.30
2017-09-02T19:08:59.260Z,85.30
2017-09-02T19:11:27.546Z,85.20
2017-09-02T19:13:55.717Z,85.30
2017-09-02T19:16:23.845Z,85.30
2017-09-02T19:18:52.001Z,85.10
2017-09-02T19:21:20.198Z,85.20
2017-09-02T19:23:48.407Z,85.20
2017-09-02T19:26:16.620Z,85.20
2017-09-02T19:28:44.973Z,85.20
2017-09-02T19:31:13.193Z,85.20
2017-09-02T19:33:41.381Z,85.40
2017-09-02T19:36:09.595Z,85.20
2017-09-02T19:38:37.997Z,85.10
2017-09-02T19:41:06.265Z,85.20
2017-09-02T19:43:35.314Z,85.30
2017-09-02T19:46:03.554Z,85.70
2017-09-02T19:48:31.958Z,85.80
2017-09-02T19:51:00.147Z,85.70
2017-09-02T19:53:28.501Z,85.60
2017-09-02T19:55:56.772Z,85.60
2017-09-02T19:58:24.962Z,85.60
2017-09-02T20:00:53.113Z,85.80
2017-09-02T20:03:21.257Z,86.70
2017-09-02T20:05:49.468Z,86.00
2017-09-02T20:08:17.644Z,85.80
2017-09-02T20:10:45.879Z,85.80
2017-09-02T20:13:14.251Z,85.70
2017-09-02T20:15:42.602Z,85.70
2017-09-02T20:18:11.132Z,85.60
2017-09-02T20:20:39.584Z,85.50
2017-09-02T20:23:08.012Z,85.50
2017-09-02T20:25:36.169Z,85.30
2017-09-02T20:28:04.543Z,85.30
2017-09-02T20:30:32.782Z,85.30
2017-09-02T20:33:00.913Z,85.40
2017-09-02T20:35:29.063Z,85.30
2017-09-02T20:37:57.198Z,85.30
2017-09-02T20:40:25.360Z,85.30
2017-09-02T20:42:53.502Z,85.20
2017-09-02T20:45:21.652Z,85.20
2017-09-02T20:47:49.787Z,85.30
2017-09-02T20:50:17.934Z,85.30
2017-09-02T20:52:46.099Z,85.30
2017-09-02T20:55:14.249Z,85.30
2017-09-02T20:57:42.412Z,85.40
2017-09-02T21:00:10.563Z,86.10
2017-09-02T21:02:38.702Z,85.40
2017-09-02T21:05:06.864Z,85.50
2017-09-02T21:07:35.005Z,85.30
2017-09-02T21:10:03.171Z,85.20
2017-09-02T21:12:31.318Z,86.20
2017-09-02T21:14:59.455Z,85.30
2017-09-02T21:17:27.609Z,85.10
2017-09-02T21:19:55.735Z,85.10
2017-09-02T21:22:23.887Z,85.30
2017-09-02T21:24:52.010Z,85.30
2017-09-02T21:27:20.275Z,85.30
2017-09-02T21:29:48.410Z,85.30
2017-09-02T21:32:16.619Z,85.00
2017-09-02T21:34:44.773Z,85.30
2017-09-02T21:37:12.911Z,85.40
2017-09-02T21:39:41.062Z,85.50
2017-09-02T21:42:09.203Z,85.50
2017-09-02T21:44:37.340Z,85.40
2017-09-02T21:47:05.512Z,85.40
2017-09-02T21:49:33.647Z,85.60
2017-09-02T21:52:01.778Z,85.60
2017-09-02T21:54:29.928Z,86.20
2017-09-02T21:56:58.052Z,85.70
2017-09-02T21:59:26.223Z,85.70
2017-09-02T22:01:54.347Z,85.70
2017-09-02T22:04:22.487Z,85.80
2017-09-02T22:06:50.646Z,85.70
2017-09-02T22:09:18.769Z,85.80
2017-09-02T22:11:46.916Z,85.70
2017-09-02T22:14:15.045Z,85.60
2017-09-02T22:16:43.212Z,85.40
2017-09-02T22:19:11.363Z,85.20
2017-09-02T22:21:39.495Z,85.20
2017-09-02T22:24:07.673Z,85.30
2017-09-02T22:26:35.811Z,85.40
2017-09-02T22:29:03.943Z,85.50
2017-09-02T22:31:32.210Z,85.50
2017-09-02T22:34:00.345Z,85.50
2017-09-02T22:36:28.474Z,85.60
2017-09-02T22:38:56.725Z,85.60
2017-09-02T22:41:24.859Z,85.50
2017-09-02T22:43:52.995Z,85.30
2017-09-02T22:46:21.141Z,85.20
2017-09-02T22:48:49.279Z,85.30
2017-09-02T22:51:17.437Z,85.50
2017-09-02T22:53:45.562Z,85.50
2017-09-02T22:56:13.697Z,85.70
2017-09-02T22:58:41.855Z,85.60
2017-09-02T23:01:09.997Z,85.90
2017-09-02T23:03:38.120Z,85.80
2017-09-02T23:06:06.271Z,85.80
2017-09-02T23:08:34.401Z,85.70
2017-09-02T23:11:02.539Z,85.80
2017-09-02T23:13:30.707Z,85.70
2017-09-02T23:15:58.847Z,85.70
2017-09-02T23:18:26.969Z,85.70
2017-09-02T23:20:55.131Z,85.80
2017-09-02T23:23:23.259Z,86.00
2017-09-02T23:25:51.413Z,86.00
2017-09-02T23:28:19.544Z,85.90
2017-09-02T23:30:47.676Z,85.80
2017-09-02T23:33:15.817Z,85.70
2017-09-02T23:35:43.952Z,85.80
2017-09-02T23:38:12.097Z,85.80
2017-09-02T23:40:40.231Z,86.00
2017-09-02T23:43:08.367Z,86.00
2017-09-02T23:45:36.622Z,86.10
2017-09-02T23:48:04.746Z,86.10
2017-09-02T23:50:32.860Z,86.00
2017-09-02T23:53:01.030Z,86.00
2017-09-02T23:55:29.158Z,86.00
2017-09-02T23:57:57.308Z,86.20
